createdAt,value
2017-03-21T00:00:40.676Z,1016.45
2017-03-21T00:01:40.669Z,1016.51
2017-03-21T00:02:40.663Z,1016.55
2017-03-21T00:03:40.656Z,1016.57
2017-03-21T00:04:40.649Z,1016.51
2017-03-21T00:05:40.642Z,1016.5
2017-03-21T00:06:40.634Z,1016.55
2017-03-21T00:07:40.628Z,1016.52
2017-03-21T00:08:40.621Z,1016.55
2017-03-21T00:09:40.613Z,1016.54
2017-03-21T00:10:40.606Z,1016.58
2017-03-21T00:11:40.600Z,1016.59
2017-03-21T00:12:40.593Z,1016.58
2017-03-21T00:13:40.589Z,1016.61
2017-03-21T00:14:40.579Z,1016.62
2017-03-21T00:15:40.571Z,1016.61
2017-03-21T00:16:40.564Z,1016.66
2017-03-21T00:17:40.556Z,1016.68
2017-03-21T00:18:40.549Z,1016.66
2017-03-21T00:19:40.543Z,1016.67
2017-03-21T00:20:40.536Z,1016.69
2017-03-21T00:21:40.527Z,1016.73
2017-03-21T00:22:40.521Z,1016.77
2017-03-21T00:23:40.514Z,1016.73
2017-03-21T00:24:40.506Z,1016.74
2017-03-21T00:25:40.499Z,1016.76
2017-03-21T00:26:40.492Z,1016.76
2017-03-21T00:27:40.485Z,1016.78
2017-03-21T00:28:40.478Z,1016.76
2017-03-21T00:29:40.470Z,1016.77
2017-03-21T00:30:40.463Z,1016.77
2017-03-21T00:31:40.455Z,1016.76
2017-03-21T00:32:40.447Z,1016.75
2017-03-21T00:33:40.446Z,1016.74
2017-03-21T00:34:40.434Z,1016.73
2017-03-21T00:35:40.428Z,1016.77
2017-03-21T00:36:40.418Z,1016.81
2017-03-21T00:37:40.412Z,1016.88
2017-03-21T00:38:40.407Z,1016.89
2017-03-21T00:39:40.396Z,1016.85
2017-03-21T00:40:40.389Z,1016.83
2017-03-21T00:41:40.382Z,1016.87
2017-03-21T00:42:40.377Z,1016.93
2017-03-21T00:43:40.367Z,1016.94
2017-03-21T00:44:40.360Z,1016.91
2017-03-21T00:45:40.352Z,1016.96
2017-03-21T00:46:40.346Z,1016.97
2017-03-21T00:47:40.338Z,1016.98
2017-03-21T00:48:40.331Z,1016.97
2017-03-21T00:49:40.324Z,1017.03
2017-03-21T00:50:40.315Z,1017.01
2017-03-21T00:51:40.307Z,1017.04
2017-03-21T00:52:40.301Z,1017.05
2017-03-21T00:53:40.294Z,1017.07
2017-03-21T00:54:40.285Z,1017.04
2017-03-21T00:55:40.278Z,1017.06
2017-03-21T00:56:40.270Z,1017.02
2017-03-21T00:57:40.264Z,1017.01
2017-03-21T00:58:40.255Z,1017.04
2017-03-21T00:59:40.279Z,1016.98
2017-03-21T01:00:40.241Z,1016.95
2017-03-21T01:01:40.234Z,1016.94
2017-03-21T01:02:40.226Z,1016.94
2017-03-21T01:03:40.217Z,1016.88
2017-03-21T01:04:40.211Z,1016.84
2017-03-21T01:05:40.203Z,1016.85
2017-03-21T01:06:40.195Z,1016.85
2017-03-21T01:07:40.189Z,1016.83
2017-03-21T01:08:40.182Z,1016.8
2017-03-21T01:09:40.173Z,1016.77
2017-03-21T01:10:40.190Z,1016.83
2017-03-21T01:11:40.158Z,1016.79
2017-03-21T01:12:40.153Z,1016.79
2017-03-21T01:13:40.144Z,1016.8
2017-03-21T01:14:40.136Z,1016.8
2017-03-21T01:15:40.129Z,1016.81
2017-03-21T01:16:40.120Z,1016.78
2017-03-21T01:17:40.113Z,1016.82
2017-03-21T01:18:40.106Z,1016.81
2017-03-21T01:19:40.100Z,1016.79
2017-03-21T01:20:40.092Z,1016.77
2017-03-21T01:21:40.085Z,1016.78
2017-03-21T01:22:40.078Z,1016.78
2017-03-21T01:23:40.070Z,1016.81
2017-03-21T01:24:40.061Z,1016.85
2017-03-21T01:25:40.055Z,1016.82
2017-03-21T01:26:40.047Z,1016.86
2017-03-21T01:27:40.040Z,1016.9
2017-03-21T01:28:40.033Z,1016.93
2017-03-21T01:29:40.026Z,1016.93
2017-03-21T01:30:40.017Z,1016.93
2017-03-21T01:31:40.010Z,1016.9
2017-03-21T01:32:40.004Z,1016.97
2017-03-21T01:33:39.996Z,1016.95
2017-03-21T01:34:39.987Z,1016.99
2017-03-21T01:35:39.980Z,1017
2017-03-21T01:36:39.973Z,1017.01
2017-03-21T01:37:39.965Z,1017.01
2017-03-21T01:38:39.958Z,1017.01
2017-03-21T01:39:39.950Z,1017.03
2017-03-21T01:40:39.943Z,1017.06
2017-03-21T01:41:39.935Z,1017.05
2017-03-21T01:42:39.928Z,1017.06
2017-03-21T01:43:39.925Z,1017.07
2017-03-21T01:44:39.913Z,1017.05
2017-03-21T01:45:39.905Z,1017.05
2017-03-21T01:46:39.897Z,1017
2017-03-21T01:47:39.890Z,1017.04
2017-03-21T01:48:39.883Z,1017.01
2017-03-21T01:49:39.874Z,1017.02
2017-03-21T01:50:39.867Z,1016.95
2017-03-21T01:51:39.860Z,1016.92
2017-03-21T01:52:39.852Z,1016.94
2017-03-21T01:53:39.845Z,1016.92
2017-03-21T01:54:39.837Z,1016.91
2017-03-21T01:55:39.829Z,1016.9
2017-03-21T01:56:39.822Z,1016.94
2017-03-21T01:57:39.814Z,1016.91
2017-03-21T01:58:39.807Z,1016.94
2017-03-21T01:59:39.800Z,1016.9
2017-03-21T02:00:39.791Z,1016.97
2017-03-21T02:01:39.783Z,1016.95
2017-03-21T02:02:39.777Z,1016.96
2017-03-21T02:03:39.768Z,1016.97
2017-03-21T02:04:39.761Z,1016.99
2017-03-21T02:05:39.753Z,1016.99
2017-03-21T02:06:39.746Z,1017
2017-03-21T02:07:39.738Z,1017.02
2017-03-21T02:08:39.731Z,1017.02
2017-03-21T02:09:39.723Z,1017
2017-03-21T02:10:39.716Z,1017.02
2017-03-21T02:11:39.707Z,1017.04
2017-03-21T02:12:39.701Z,1017.02
2017-03-21T02:13:39.693Z,1017.02
2017-03-21T02:14:39.685Z,1017.05
2017-03-21T02:15:39.677Z,1017.02
2017-03-21T02:16:39.671Z,1017.07
2017-03-21T02:17:39.663Z,1017.03
2017-03-21T02:18:39.655Z,1017.02
2017-03-21T02:19:39.646Z,1017.02
2017-03-21T02:20:39.640Z,1017.04
2017-03-21T02:21:39.632Z,1017.05
2017-03-21T02:22:39.625Z,1017.06
2017-03-21T02:23:39.617Z,1017.08
2017-03-21T02:24:39.608Z,1017.09
2017-03-21T02:25:39.601Z,1017.06
2017-03-21T02:26:39.593Z,1017.04
2017-03-21T02:27:39.587Z,1017.08
2017-03-21T02:28:39.579Z,1017.04
2017-03-21T02:29:39.571Z,1017.03
2017-03-21T02:30:39.563Z,1017.03
2017-03-21T02:31:39.555Z,1017.01
2017-03-21T02:32:39.548Z,1016.98
2017-03-21T02:33:39.541Z,1016.97
2017-03-21T02:34:39.531Z,1016.99
2017-03-21T02:35:39.525Z,1016.9
2017-03-21T02:36:39.517Z,1016.92
2017-03-21T02:37:39.509Z,1016.96
2017-03-21T02:38:39.502Z,1016.91
2017-03-21T02:39:39.495Z,1016.92
2017-03-21T02:40:39.486Z,1016.9
2017-03-21T02:41:39.478Z,1016.92
2017-03-21T02:42:39.472Z,1016.9
2017-03-21T02:43:39.465Z,1016.9
2017-03-21T02:44:39.456Z,1016.89
2017-03-21T02:45:39.449Z,1016.87
2017-03-21T02:46:39.441Z,1016.85
2017-03-21T02:47:39.433Z,1016.87
2017-03-21T02:48:39.426Z,1016.87
2017-03-21T02:49:39.418Z,1016.91
2017-03-21T02:50:39.411Z,1016.9
2017-03-21T02:51:39.402Z,1016.92
2017-03-21T02:52:39.400Z,1016.93
2017-03-21T02:53:39.389Z,1016.95
2017-03-21T02:54:39.380Z,1016.87
2017-03-21T02:55:39.374Z,1016.92
2017-03-21T02:56:39.367Z,1016.88
2017-03-21T02:57:39.360Z,1016.9
2017-03-21T02:58:39.351Z,1016.86
2017-03-21T02:59:39.344Z,1016.86
2017-03-21T03:00:39.337Z,1016.91
2017-03-21T03:01:39.328Z,1016.92
2017-03-21T03:02:39.324Z,1016.9
2017-03-21T03:03:39.314Z,1016.97
2017-03-21T03:04:39.307Z,1016.91
2017-03-21T03:05:39.298Z,1016.97
2017-03-21T03:06:39.291Z,1016.94
2017-03-21T03:07:39.284Z,1016.95
2017-03-21T03:08:39.277Z,1016.98
2017-03-21T03:09:39.269Z,1016.96
2017-03-21T03:10:39.261Z,1016.93
2017-03-21T03:11:39.254Z,1016.97
2017-03-21T03:12:39.247Z,1016.95
2017-03-21T03:13:39.239Z,1016.94
2017-03-21T03:14:39.233Z,1016.95
2017-03-21T03:15:39.224Z,1016.99
2017-03-21T03:16:39.222Z,1016.98
2017-03-21T03:17:39.209Z,1016.98
2017-03-21T03:18:39.202Z,1016.99
2017-03-21T03:19:39.193Z,1017.03
2017-03-21T03:20:39.186Z,1016.98
2017-03-21T03:21:39.178Z,1017
2017-03-21T03:22:39.172Z,1016.99
2017-03-21T03:23:39.165Z,1017
2017-03-21T03:24:39.157Z,1017.06
2017-03-21T03:25:39.149Z,1017.07
2017-03-21T03:26:39.142Z,1017.07
2017-03-21T03:27:39.134Z,1017.03
2017-03-21T03:28:39.127Z,1017
2017-03-21T03:29:39.119Z,1017.06
2017-03-21T03:30:39.112Z,1017.06
2017-03-21T03:31:39.103Z,1017.06
2017-03-21T03:32:39.097Z,1017.05
2017-03-21T03:33:39.090Z,1017.04
2017-03-21T03:34:39.082Z,1017.06
2017-03-21T03:35:39.074Z,1017.06
2017-03-21T03:36:39.067Z,1017.04
2017-03-21T03:37:39.060Z,1017.03
2017-03-21T03:38:39.052Z,1017.11
2017-03-21T03:39:39.045Z,1017.1
2017-03-21T03:40:39.037Z,1017.12
2017-03-21T03:41:39.056Z,1017.14
2017-03-21T03:42:39.022Z,1017.26
2017-03-21T03:43:39.016Z,1017.21
2017-03-21T03:44:39.007Z,1017.23
2017-03-21T03:45:39.001Z,1017.23
2017-03-21T03:46:38.992Z,1017.27
2017-03-21T03:47:38.986Z,1017.23
2017-03-21T03:48:38.979Z,1017.29
2017-03-21T03:49:38.970Z,1017.27
2017-03-21T03:50:38.962Z,1017.26
2017-03-21T03:51:38.955Z,1017.29
2017-03-21T03:52:38.949Z,1017.31
2017-03-21T03:53:38.941Z,1017.33
2017-03-21T03:54:38.933Z,1017.32
2017-03-21T03:55:38.926Z,1017.29
2017-03-21T03:56:38.918Z,1017.31
2017-03-21T03:57:38.911Z,1017.28
2017-03-21T03:58:38.904Z,1017.31
2017-03-21T03:59:38.896Z,1017.31
2017-03-21T04:00:38.888Z,1017.34
2017-03-21T04:01:38.880Z,1017.29
2017-03-21T04:02:38.874Z,1017.34
2017-03-21T04:03:38.867Z,1017.38
2017-03-21T04:04:38.858Z,1017.39
2017-03-21T04:05:38.851Z,1017.35
2017-03-21T04:06:38.843Z,1017.43
2017-03-21T04:07:38.836Z,1017.4
2017-03-21T04:08:38.828Z,1017.37
2017-03-21T04:09:38.821Z,1017.34
2017-03-21T04:10:38.814Z,1017.38
2017-03-21T04:11:38.805Z,1017.34
2017-03-21T04:12:38.798Z,1017.37
2017-03-21T04:13:38.791Z,1017.33
2017-03-21T04:14:38.784Z,1017.36
2017-03-21T04:15:38.775Z,1017.3
2017-03-21T04:16:38.767Z,1017.29
2017-03-21T04:17:38.762Z,1017.27
2017-03-21T04:18:38.754Z,1017.26
2017-03-21T04:19:38.746Z,1017.28
2017-03-21T04:20:38.739Z,1017.33
2017-03-21T04:21:38.731Z,1017.35
2017-03-21T04:22:38.725Z,1017.33
2017-03-21T04:23:38.717Z,1017.37
2017-03-21T04:24:38.709Z,1017.43
2017-03-21T04:25:38.703Z,1017.4
2017-03-21T04:26:38.694Z,1017.37
2017-03-21T04:27:38.687Z,1017.36
2017-03-21T04:28:38.680Z,1017.36
2017-03-21T04:29:38.673Z,1017.38
2017-03-21T04:30:38.666Z,1017.35
2017-03-21T04:31:38.658Z,1017.37
2017-03-21T04:32:38.651Z,1017.35
2017-03-21T04:33:38.643Z,1017.39
2017-03-21T04:34:38.636Z,1017.34
2017-03-21T04:35:38.629Z,1017.35
2017-03-21T04:36:38.622Z,1017.37
2017-03-21T04:37:38.614Z,1017.35
2017-03-21T04:38:38.607Z,1017.41
2017-03-21T04:39:38.599Z,1017.39
2017-03-21T04:40:38.591Z,1017.42
2017-03-21T04:41:38.584Z,1017.45
2017-03-21T04:42:38.577Z,1017.39
2017-03-21T04:43:38.570Z,1017.41
2017-03-21T04:44:38.561Z,1017.42
2017-03-21T04:45:38.555Z,1017.41
2017-03-21T04:46:38.547Z,1017.46
2017-03-21T04:47:38.541Z,1017.48
2017-03-21T04:48:38.533Z,1017.44
2017-03-21T04:49:38.525Z,1017.51
2017-03-21T04:50:38.517Z,1017.45
2017-03-21T04:51:38.510Z,1017.48
2017-03-21T04:52:38.503Z,1017.47
2017-03-21T04:53:38.506Z,1017.47
2017-03-21T04:54:38.489Z,1017.43
2017-03-21T04:55:38.481Z,1017.47
2017-03-21T04:56:38.474Z,1017.49
2017-03-21T04:57:38.467Z,1017.55
2017-03-21T04:58:38.459Z,1017.6
2017-03-21T04:59:38.451Z,1017.56
2017-03-21T05:00:38.445Z,1017.57
2017-03-21T05:01:38.437Z,1017.54
2017-03-21T05:02:38.430Z,1017.61
2017-03-21T05:03:38.422Z,1017.6
2017-03-21T05:04:38.415Z,1017.55
2017-03-21T05:05:38.408Z,1017.55
2017-03-21T05:06:38.400Z,1017.56
2017-03-21T05:07:38.395Z,1017.57
2017-03-21T05:08:38.386Z,1017.59
2017-03-21T05:09:38.379Z,1017.64
2017-03-21T05:10:38.371Z,1017.6
2017-03-21T05:11:38.363Z,1017.66
2017-03-21T05:12:38.357Z,1017.66
2017-03-21T05:13:38.348Z,1017.7
2017-03-21T05:14:38.340Z,1017.67
2017-03-21T05:15:38.334Z,1017.73
2017-03-21T05:16:38.327Z,1017.73
2017-03-21T05:17:38.319Z,1017.74
2017-03-21T05:18:38.311Z,1017.74
2017-03-21T05:19:38.304Z,1017.78
2017-03-21T05:20:38.297Z,1017.76
2017-03-21T05:21:38.288Z,1017.75
2017-03-21T05:22:38.282Z,1017.78
2017-03-21T05:23:38.275Z,1017.8
2017-03-21T05:24:38.266Z,1017.82
2017-03-21T05:25:38.258Z,1017.86
2017-03-21T05:26:38.252Z,1017.85
2017-03-21T05:27:38.245Z,1017.81
2017-03-21T05:28:38.237Z,1017.81
2017-03-21T05:29:38.230Z,1017.84
2017-03-21T05:30:38.222Z,1017.81
2017-03-21T05:31:38.215Z,1017.75
2017-03-21T05:32:38.207Z,1017.73
2017-03-21T05:33:38.200Z,1017.71
2017-03-21T05:34:38.193Z,1017.76
2017-03-21T05:35:38.185Z,1017.8
2017-03-21T05:36:38.177Z,1017.77
2017-03-21T05:37:38.170Z,1017.71
2017-03-21T05:38:38.165Z,1017.72
2017-03-21T05:39:38.155Z,1017.7
2017-03-21T05:40:38.148Z,1017.66
2017-03-21T05:41:38.141Z,1017.58
2017-03-21T05:42:38.134Z,1017.61
2017-03-21T05:43:38.126Z,1017.62
2017-03-21T05:44:38.119Z,1017.65
2017-03-21T05:45:38.112Z,1017.65
2017-03-21T05:46:38.103Z,1017.59
2017-03-21T05:47:38.097Z,1017.63
2017-03-21T05:48:38.091Z,1017.61
2017-03-21T05:49:38.089Z,1017.55
2017-03-21T05:50:38.074Z,1017.49
2017-03-21T05:51:38.067Z,1017.54
2017-03-21T05:52:38.061Z,1017.48
2017-03-21T05:53:38.053Z,1017.44
2017-03-21T05:54:38.046Z,1017.45
2017-03-21T05:55:38.069Z,1017.43
2017-03-21T05:56:38.032Z,1017.43
2017-03-21T05:57:38.025Z,1017.46
2017-03-21T05:58:38.017Z,1017.4
2017-03-21T05:59:38.010Z,1017.39
2017-03-21T06:00:38.006Z,1017.37
2017-03-21T06:01:37.995Z,1017.38
2017-03-21T06:02:37.990Z,1017.36
2017-03-21T06:03:37.983Z,1017.42
2017-03-21T06:04:37.975Z,1017.42
2017-03-21T06:05:37.969Z,1017.44
2017-03-21T06:06:37.961Z,1017.42
2017-03-21T06:07:37.956Z,1017.48
2017-03-21T06:08:37.949Z,1017.47
2017-03-21T06:09:37.941Z,1017.44
2017-03-21T06:10:37.933Z,1017.46
2017-03-21T06:11:37.927Z,1017.42
2017-03-21T06:12:37.920Z,1017.41
2017-03-21T06:13:37.913Z,1017.41
2017-03-21T06:14:37.907Z,1017.4
2017-03-21T06:15:37.899Z,1017.35
2017-03-21T06:16:37.891Z,1017.39
2017-03-21T06:17:37.886Z,1017.39
2017-03-21T06:18:37.879Z,1017.34
2017-03-21T06:19:37.872Z,1017.28
2017-03-21T06:20:37.865Z,1017.21
2017-03-21T06:21:37.858Z,1017.19
2017-03-21T06:22:37.852Z,1017.13
2017-03-21T06:23:37.845Z,1017.07
2017-03-21T06:24:37.838Z,1017.06
2017-03-21T06:25:37.831Z,1016.94
2017-03-21T06:26:37.824Z,1016.95
2017-03-21T06:27:37.818Z,1016.8
2017-03-21T06:28:37.812Z,1016.78
2017-03-21T06:29:37.805Z,1016.75
2017-03-21T06:30:37.798Z,1016.76
2017-03-21T06:31:37.792Z,1016.71
2017-03-21T06:32:37.785Z,1016.69
2017-03-21T06:33:37.780Z,1016.68
2017-03-21T06:34:37.771Z,1016.64
2017-03-21T06:35:37.767Z,1016.48
2017-03-21T06:36:37.760Z,1016.2
2017-03-21T06:37:37.754Z,1015.81
2017-03-21T06:38:37.749Z,1015.41
2017-03-21T06:39:37.743Z,1015.01
2017-03-21T06:40:37.764Z,1014.87
2017-03-21T06:41:37.731Z,1014.93
2017-03-21T06:42:37.726Z,1015.03
2017-03-21T06:43:37.721Z,1015.04
2017-03-21T06:44:37.716Z,1015.09
2017-03-21T06:45:37.710Z,1015.15
2017-03-21T06:46:37.706Z,1015.09
2017-03-21T06:47:37.702Z,1015.1
2017-03-21T06:48:37.696Z,1015.07
2017-03-21T06:49:37.691Z,1015.06
2017-03-21T06:50:37.686Z,1015.05
2017-03-21T06:51:37.682Z,1015.04
2017-03-21T06:52:37.678Z,1015.06
2017-03-21T06:53:37.674Z,1015.1
2017-03-21T06:54:37.668Z,1015.08
2017-03-21T06:55:37.665Z,1015.09
2017-03-21T06:56:37.660Z,1015.1
2017-03-21T06:57:37.656Z,1015.16
2017-03-21T06:58:37.652Z,1015.14
2017-03-21T06:59:37.647Z,1015.14
2017-03-21T07:00:37.644Z,1015.3
2017-03-21T07:01:37.639Z,1015.47
2017-03-21T07:02:37.635Z,1015.48
2017-03-21T07:03:37.632Z,1015.52
2017-03-21T07:04:37.627Z,1015.51
2017-03-21T07:05:37.624Z,1015.53
2017-03-21T07:06:37.619Z,1015.59
2017-03-21T07:07:37.614Z,1015.52
2017-03-21T07:08:37.610Z,1015.56
2017-03-21T07:09:37.606Z,1015.59
2017-03-21T07:10:37.602Z,1015.7
2017-03-21T07:11:37.597Z,1015.81
2017-03-21T07:12:37.598Z,1015.89
2017-03-21T07:13:37.590Z,1015.94
2017-03-21T07:14:37.583Z,1015.93
2017-03-21T07:15:37.580Z,1015.94
2017-03-21T07:16:37.576Z,1015.93
2017-03-21T07:17:37.573Z,1016.01
2017-03-21T07:18:37.568Z,1016.05
2017-03-21T07:19:37.564Z,1016.06
2017-03-21T07:20:37.559Z,1016.15
2017-03-21T07:21:37.554Z,1016.24
2017-03-21T07:22:37.549Z,1016.3
2017-03-21T07:23:37.545Z,1016.33
2017-03-21T07:24:37.541Z,1016.44
2017-03-21T07:25:37.535Z,1016.46
2017-03-21T07:26:37.532Z,1016.55
2017-03-21T07:27:37.528Z,1016.7
2017-03-21T07:28:37.522Z,1016.72
2017-03-21T07:29:37.518Z,1016.85
2017-03-21T07:30:37.517Z,1016.82
2017-03-21T07:31:37.507Z,1016.82
2017-03-21T07:32:37.503Z,1016.83
2017-03-21T07:33:37.498Z,1016.84
2017-03-21T07:34:37.493Z,1016.85
2017-03-21T07:35:37.488Z,1016.93
2017-03-21T07:36:37.483Z,1016.96
2017-03-21T07:37:37.479Z,1017.03
2017-03-21T07:38:37.474Z,1017.09
2017-03-21T07:39:37.469Z,1017.1
2017-03-21T07:40:37.464Z,1017.15
2017-03-21T07:41:37.459Z,1017.1
2017-03-21T07:42:37.456Z,1017.06
2017-03-21T07:43:37.448Z,1017.06
2017-03-21T07:44:37.444Z,1017.06
2017-03-21T07:45:37.440Z,1017.07
2017-03-21T07:46:37.434Z,1017.13
2017-03-21T07:47:37.433Z,1017.09
2017-03-21T07:48:37.423Z,1017.19
2017-03-21T07:49:37.418Z,1017.22
2017-03-21T07:50:37.412Z,1017.13
2017-03-21T07:51:37.407Z,1017.2
2017-03-21T07:52:37.432Z,1017.21
2017-03-21T07:53:37.396Z,1017.12
2017-03-21T07:54:37.392Z,1017.14
2017-03-21T07:55:37.387Z,1017.25
2017-03-21T07:56:37.410Z,1017.32
2017-03-21T07:57:37.378Z,1017.31
2017-03-21T07:58:37.371Z,1017.32
2017-03-21T07:59:37.365Z,1017.31
2017-03-21T08:00:37.361Z,1017.41
2017-03-21T08:01:37.354Z,1017.45
2017-03-21T08:02:37.349Z,1017.56
2017-03-21T08:03:37.343Z,1017.62
2017-03-21T08:04:37.339Z,1017.67
2017-03-21T08:05:37.333Z,1017.7
2017-03-21T08:06:37.338Z,1017.67
2017-03-21T08:07:37.335Z,1017.67
2017-03-21T08:08:37.318Z,1017.65
2017-03-21T08:09:37.312Z,1017.64
2017-03-21T08:10:37.306Z,1017.52
2017-03-21T08:11:37.301Z,1017.54
2017-03-21T08:12:37.300Z,1017.56
2017-03-21T08:13:37.289Z,1017.53
2017-03-21T08:14:37.284Z,1017.56
2017-03-21T08:15:37.279Z,1017.5
2017-03-21T08:16:37.271Z,1017.45
2017-03-21T08:17:37.268Z,1017.25
2017-03-21T08:18:37.263Z,1017.11
2017-03-21T08:19:37.257Z,1016.96
2017-03-21T08:20:37.250Z,1016.92
2017-03-21T08:21:37.251Z,1016.87
2017-03-21T08:22:37.241Z,1016.91
2017-03-21T08:23:37.234Z,1016.77
2017-03-21T08:24:37.230Z,1016.71
2017-03-21T08:25:37.224Z,1016.7
2017-03-21T08:26:37.220Z,1016.7
2017-03-21T08:27:37.219Z,1016.62
2017-03-21T08:28:37.210Z,1016.59
2017-03-21T08:29:37.205Z,1016.41
2017-03-21T08:30:37.201Z,1016.37
2017-03-21T08:31:37.194Z,1016.26
2017-03-21T08:32:37.190Z,1016.15
2017-03-21T08:33:37.186Z,1016.04
2017-03-21T08:34:37.183Z,1015.96
2017-03-21T08:35:37.176Z,1015.94
2017-03-21T08:36:37.173Z,1015.89
2017-03-21T08:37:37.167Z,1015.87
2017-03-21T08:38:37.162Z,1015.85
2017-03-21T08:39:37.159Z,1015.83
2017-03-21T08:40:37.155Z,1015.73
2017-03-21T08:41:37.151Z,1015.64
2017-03-21T08:42:37.146Z,1015.45
2017-03-21T08:43:37.142Z,1015.26
2017-03-21T08:44:37.138Z,1015.03
2017-03-21T08:45:37.135Z,1014.92
2017-03-21T08:46:37.132Z,1014.71
2017-03-21T08:47:37.129Z,1014.63
2017-03-21T08:48:37.127Z,1014.53
2017-03-21T08:49:37.122Z,1014.38
2017-03-21T08:50:37.119Z,1014.24
2017-03-21T08:51:37.116Z,1014.16
2017-03-21T08:52:37.114Z,1014.19
2017-03-21T08:53:37.110Z,1014.24
2017-03-21T08:54:37.108Z,1014.33
2017-03-21T08:55:37.107Z,1014.37
2017-03-21T08:56:37.103Z,1014.49
2017-03-21T08:57:37.101Z,1014.66
2017-03-21T08:58:37.100Z,1014.83
2017-03-21T08:59:37.097Z,1014.87
2017-03-21T09:00:37.095Z,1014.98
2017-03-21T09:01:37.094Z,1015.02
2017-03-21T09:02:37.091Z,1014.96
2017-03-21T09:03:37.090Z,1014.94
2017-03-21T09:04:37.087Z,1014.89
2017-03-21T09:05:37.085Z,1014.95
2017-03-21T09:06:37.083Z,1015.04
2017-03-21T09:07:37.080Z,1015.06
2017-03-21T09:08:37.079Z,1015.05
2017-03-21T09:09:37.077Z,1014.97
2017-03-21T09:10:37.076Z,1014.88
2017-03-21T09:11:37.073Z,1014.91
2017-03-21T09:12:37.072Z,1014.86
2017-03-21T09:13:37.069Z,1014.79
2017-03-21T09:14:37.069Z,1014.73
2017-03-21T09:15:37.067Z,1014.73
2017-03-21T09:16:37.065Z,1014.82
2017-03-21T09:17:37.064Z,1014.88
2017-03-21T09:18:37.061Z,1015.02
2017-03-21T09:19:37.059Z,1015.05
2017-03-21T09:20:37.064Z,1015.1
2017-03-21T09:21:37.056Z,1015.15
2017-03-21T09:22:37.058Z,1015.16
2017-03-21T09:23:37.052Z,1015.28
2017-03-21T09:24:37.051Z,1015.3
2017-03-21T09:25:37.048Z,1015.37
2017-03-21T09:26:37.046Z,1015.51
2017-03-21T09:27:37.044Z,1015.62
2017-03-21T09:28:37.043Z,1015.68
2017-03-21T09:29:37.040Z,1015.7
2017-03-21T09:30:37.037Z,1015.77
2017-03-21T09:31:37.040Z,1015.73
2017-03-21T09:32:37.034Z,1015.71
2017-03-21T09:33:37.030Z,1015.68
2017-03-21T09:34:37.028Z,1015.6
2017-03-21T09:35:37.026Z,1015.59
2017-03-21T09:36:37.023Z,1015.51
2017-03-21T09:37:37.021Z,1015.4
2017-03-21T09:38:37.019Z,1015.38
2017-03-21T09:39:37.016Z,1015.36
2017-03-21T09:40:37.014Z,1015.34
2017-03-21T09:41:37.011Z,1015.39
2017-03-21T09:42:37.010Z,1015.43
2017-03-21T09:43:37.007Z,1015.45
2017-03-21T09:44:37.004Z,1015.55
2017-03-21T09:45:37.002Z,1015.73
2017-03-21T09:46:37.004Z,1015.94
2017-03-21T09:47:36.995Z,1016.11
2017-03-21T09:48:36.994Z,1016.28
2017-03-21T09:49:36.991Z,1016.48
2017-03-21T09:50:36.989Z,1016.66
2017-03-21T09:51:36.986Z,1016.87
2017-03-21T09:52:36.981Z,1017.17
2017-03-21T09:53:36.980Z,1017.43
2017-03-21T09:54:36.978Z,1017.7
2017-03-21T09:55:36.973Z,1017.94
2017-03-21T09:56:36.970Z,1018.21
2017-03-21T09:57:37.011Z,1018.47
2017-03-21T09:58:36.963Z,1018.64
2017-03-21T09:59:36.960Z,1018.8
2017-03-21T10:00:36.957Z,1018.86
2017-03-21T10:01:36.952Z,1018.96
2017-03-21T10:02:36.947Z,1018.97
2017-03-21T10:03:36.944Z,1019.09
2017-03-21T10:04:36.940Z,1019.12
2017-03-21T10:05:36.936Z,1019.06
2017-03-21T10:06:36.931Z,1019.04
2017-03-21T10:07:36.926Z,1019.02
2017-03-21T10:08:36.921Z,1019
2017-03-21T10:09:36.917Z,1018.93
2017-03-21T10:10:36.913Z,1018.82
2017-03-21T10:11:36.908Z,1018.74
2017-03-21T10:12:36.903Z,1018.67
2017-03-21T10:13:36.898Z,1018.6
2017-03-21T10:14:36.894Z,1018.52
2017-03-21T10:15:36.889Z,1018.56
2017-03-21T10:16:36.884Z,1018.58
2017-03-21T10:17:36.878Z,1018.64
2017-03-21T10:18:36.874Z,1018.65
2017-03-21T10:19:36.869Z,1018.74
2017-03-21T10:20:36.864Z,1018.81
2017-03-21T10:21:36.859Z,1018.8
2017-03-21T10:22:36.860Z,1018.71
2017-03-21T10:23:36.862Z,1018.65
2017-03-21T10:24:36.845Z,1018.61
2017-03-21T10:25:36.839Z,1018.53
2017-03-21T10:26:36.834Z,1018.44
2017-03-21T10:27:36.829Z,1018.36
2017-03-21T10:28:36.824Z,1018.33
2017-03-21T10:29:36.820Z,1018.39
2017-03-21T10:30:36.814Z,1018.47
2017-03-21T10:31:36.808Z,1018.49
2017-03-21T10:32:36.805Z,1018.48
2017-03-21T10:33:36.800Z,1018.41
2017-03-21T10:34:36.794Z,1018.4
2017-03-21T10:35:36.793Z,1018.35
2017-03-21T10:36:36.785Z,1018.41
2017-03-21T10:37:36.780Z,1018.35
2017-03-21T10:38:36.775Z,1018.31
2017-03-21T10:39:36.770Z,1018.31
2017-03-21T10:40:36.765Z,1018.14
2017-03-21T10:41:36.760Z,1018.15
2017-03-21T10:42:36.754Z,1018.08
2017-03-21T10:43:36.750Z,1018.01
2017-03-21T10:44:36.752Z,1017.96
2017-03-21T10:45:36.741Z,1017.95
2017-03-21T10:46:36.735Z,1017.92
2017-03-21T10:47:36.735Z,1017.9
2017-03-21T10:48:36.726Z,1017.89
2017-03-21T10:49:36.722Z,1017.82
2017-03-21T10:50:36.717Z,1017.87
2017-03-21T10:51:36.712Z,1017.86
2017-03-21T10:52:36.708Z,1017.84
2017-03-21T10:53:36.704Z,1017.84
2017-03-21T10:54:36.698Z,1017.72
2017-03-21T10:55:36.693Z,1017.72
2017-03-21T10:56:36.689Z,1017.7
2017-03-21T10:57:36.685Z,1017.74
2017-03-21T10:58:36.680Z,1017.66
2017-03-21T10:59:36.675Z,1017.69
2017-03-21T11:00:36.670Z,1017.66
2017-03-21T11:01:36.665Z,1017.74
2017-03-21T11:02:36.662Z,1017.74
2017-03-21T11:03:36.657Z,1017.75
2017-03-21T11:04:36.652Z,1017.74
2017-03-21T11:05:36.648Z,1017.81
2017-03-21T11:06:36.643Z,1017.85
2017-03-21T11:07:36.639Z,1017.8
2017-03-21T11:08:36.635Z,1017.81
2017-03-21T11:09:36.630Z,1017.85
2017-03-21T11:10:36.625Z,1017.85
2017-03-21T11:11:36.620Z,1017.92
2017-03-21T11:12:36.616Z,1017.96
2017-03-21T11:13:36.611Z,1017.97
2017-03-21T11:14:36.608Z,1017.9
2017-03-21T11:15:36.603Z,1017.89
2017-03-21T11:16:36.598Z,1017.82
2017-03-21T11:17:36.595Z,1017.77
2017-03-21T11:18:36.594Z,1017.76
2017-03-21T11:19:36.584Z,1017.75
2017-03-21T11:20:36.580Z,1017.77
2017-03-21T11:21:36.576Z,1017.77
2017-03-21T11:22:36.571Z,1017.83
2017-03-21T11:23:36.566Z,1017.87
2017-03-21T11:24:36.562Z,1017.88
2017-03-21T11:25:36.557Z,1017.88
2017-03-21T11:26:36.554Z,1017.92
2017-03-21T11:27:36.548Z,1017.93
2017-03-21T11:28:36.544Z,1017.98
2017-03-21T11:29:36.541Z,1017.99
2017-03-21T11:30:36.535Z,1018.04
2017-03-21T11:31:36.531Z,1018.06
2017-03-21T11:32:36.526Z,1018.06
2017-03-21T11:33:36.520Z,1018.17
2017-03-21T11:34:36.516Z,1018.22
2017-03-21T11:35:36.513Z,1018.3
2017-03-21T11:36:36.508Z,1018.35
2017-03-21T11:37:36.503Z,1018.5
2017-03-21T11:38:36.498Z,1018.52
2017-03-21T11:39:36.495Z,1018.54
2017-03-21T11:40:36.490Z,1018.57
2017-03-21T11:41:36.484Z,1018.54
2017-03-21T11:42:36.480Z,1018.5
2017-03-21T11:43:36.477Z,1018.4
2017-03-21T11:44:36.469Z,1018.43
2017-03-21T11:45:36.465Z,1018.34
2017-03-21T11:46:36.460Z,1018.21
2017-03-21T11:47:36.455Z,1018.07
2017-03-21T11:48:36.451Z,1017.94
2017-03-21T11:49:36.446Z,1017.86
2017-03-21T11:50:36.442Z,1017.84
2017-03-21T11:51:36.437Z,1017.86
2017-03-21T11:52:36.431Z,1017.88
2017-03-21T11:53:36.428Z,1017.89
2017-03-21T11:54:36.422Z,1017.95
2017-03-21T11:55:36.418Z,1017.98
2017-03-21T11:56:36.413Z,1018.02
2017-03-21T11:57:36.409Z,1018.02
2017-03-21T11:58:36.405Z,1017.98
2017-03-21T11:59:36.399Z,1017.99
2017-03-21T12:00:36.395Z,1018.03
2017-03-21T12:01:36.391Z,1017.97
2017-03-21T12:02:36.386Z,1017.89
2017-03-21T12:03:36.381Z,1017.81
2017-03-21T12:04:36.377Z,1017.77
2017-03-21T12:05:36.373Z,1017.76
2017-03-21T12:06:36.369Z,1017.71
2017-03-21T12:07:36.364Z,1017.7
2017-03-21T12:08:36.360Z,1017.66